createdAt,value
2023-03-19T00:00:19.747Z,6.65
2023-03-19T00:01:22.749Z,6.38
2023-03-19T00:02:24.813Z,6.60
2023-03-19T00:03:27.805Z,6.55
2023-03-19T00:04:29.776Z,6.60
2023-03-19T00:05:34.626Z,6.10
2023-03-19T00:06:36.833Z,5.60
2023-03-19T00:07:39.733Z,5.25
2023-03-19T00:08:42.053Z,5.38
2023-03-19T00:09:48.235Z,5.80
2023-03-19T00:10:50.900Z,6.43
2023-03-19T00:11:53.997Z,6.30
2023-03-19T00:12:56.588Z,6.65
2023-03-19T00:13:59.554Z,6.20
2023-03-19T00:15:01.729Z,7.10
2023-03-19T00:16:05.165Z,7.10
2023-03-19T00:17:07.266Z,6.90
2023-03-19T00:18:10.323Z,6.60
2023-03-19T00:19:12.281Z,6.65
2023-03-19T00:20:16.133Z,6.15
2023-03-19T00:21:19.464Z,7.78
2023-03-19T00:22:22.432Z,6.97
2023-03-19T00:23:24.566Z,6.25
2023-03-19T00:24:27.599Z,6.15
2023-03-19T00:25:29.700Z,7.32
2023-03-19T00:26:33.560Z,6.70
2023-03-19T00:27:36.470Z,7.25
2023-03-19T00:28:39.567Z,6.95
2023-03-19T00:29:41.487Z,7.60
2023-03-19T00:30:45.570Z,7.10
2023-03-19T00:31:47.611Z,7.38
2023-03-19T00:32:50.582Z,7.45
2023-03-19T00:33:53.118Z,7.28
2023-03-19T00:34:56.369Z,6.70
2023-03-19T00:35:58.733Z,6.78
2023-03-19T00:37:03.076Z,7.18
2023-03-19T00:38:05.013Z,6.45
2023-03-19T00:39:08.864Z,5.80
2023-03-19T00:40:12.040Z,6.35
2023-03-19T00:41:17.239Z,5.40
2023-03-19T00:42:19.223Z,5.75
2023-03-19T00:43:22.143Z,6.50
2023-03-19T00:44:24.421Z,6.25
2023-03-19T00:45:28.027Z,5.72
2023-03-19T00:46:30.054Z,6.03
2023-03-19T00:47:32.968Z,6.78
2023-03-19T00:48:35.954Z,7.03
2023-03-19T00:49:38.875Z,6.20
2023-03-19T00:50:41.144Z,5.45
2023-03-19T00:51:44.124Z,6.40
2023-03-19T00:52:47.388Z,5.85
2023-03-19T00:53:50.950Z,5.72
2023-03-19T00:54:52.879Z,6.10
2023-03-19T00:55:56.126Z,5.97
2023-03-19T00:56:58.162Z,6.00
2023-03-19T00:58:01.801Z,5.45
2023-03-19T00:59:03.758Z,5.13
2023-03-19T01:00:08.604Z,5.53
2023-03-19T01:01:12.821Z,5.57
2023-03-19T01:02:15.983Z,6.25
2023-03-19T01:03:17.950Z,5.50
2023-03-19T01:04:21.713Z,5.78
2023-03-19T01:05:41.826Z,5.60
2023-03-19T01:06:44.720Z,5.00
2023-03-19T01:07:48.040Z,5.82
2023-03-19T01:08:50.931Z,5.57
2023-03-19T01:09:52.922Z,6.35
2023-03-19T01:10:55.835Z,6.05
2023-03-19T01:11:57.797Z,6.07
2023-03-19T01:13:00.684Z,5.53
2023-03-19T01:14:02.719Z,5.25
2023-03-19T01:15:08.786Z,6.72
2023-03-19T01:16:11.505Z,7.10
2023-03-19T01:17:14.419Z,5.28
2023-03-19T01:18:16.322Z,5.70
2023-03-19T01:19:20.079Z,6.78
2023-03-19T01:20:24.093Z,6.10
2023-03-19T01:21:27.338Z,5.85
2023-03-19T01:22:29.264Z,6.20
2023-03-19T01:23:33.552Z,5.82
2023-03-19T01:24:35.585Z,5.63
2023-03-19T01:25:40.614Z,5.82
2023-03-19T01:26:42.886Z,6.03
2023-03-19T01:27:46.165Z,6.15
2023-03-19T01:28:49.098Z,5.55
2023-03-19T01:29:51.480Z,5.55
2023-03-19T01:30:54.491Z,6.65
2023-03-19T01:31:57.293Z,7.13
2023-03-19T01:33:00.553Z,5.75
2023-03-19T01:34:02.972Z,5.55
2023-03-19T01:35:06.808Z,5.57
2023-03-19T01:36:14.411Z,5.95
2023-03-19T01:37:17.457Z,5.07
2023-03-19T01:38:19.683Z,5.82
2023-03-19T01:39:23.988Z,5.30
2023-03-19T01:40:25.930Z,6.38
2023-03-19T01:41:28.826Z,5.70
2023-03-19T01:42:30.828Z,5.80
2023-03-19T01:43:34.312Z,6.60
2023-03-19T01:44:38.040Z,5.75
2023-03-19T01:45:42.348Z,5.90
2023-03-19T01:46:45.382Z,6.25
2023-03-19T01:47:47.345Z,5.57
2023-03-19T01:48:52.700Z,6.72
2023-03-19T01:49:56.906Z,5.75
2023-03-19T01:51:02.129Z,5.28
2023-03-19T01:52:06.060Z,6.15
2023-03-19T01:53:12.531Z,6.50
2023-03-19T01:54:20.445Z,5.28
2023-03-19T01:55:24.927Z,5.30
2023-03-19T01:56:30.618Z,5.43
2023-03-19T01:57:33.833Z,5.10
2023-03-19T01:58:35.896Z,5.55
2023-03-19T01:59:42.465Z,5.25
2023-03-19T02:00:45.785Z,5.25
2023-03-19T02:01:56.084Z,5.82
2023-03-19T02:03:01.572Z,5.60
2023-03-19T02:04:06.059Z,4.80
2023-03-19T02:05:11.364Z,5.40
2023-03-19T02:06:15.151Z,5.97
2023-03-19T02:07:17.395Z,4.85
2023-03-19T02:08:23.028Z,5.15
2023-03-19T02:09:27.717Z,5.15
2023-03-19T02:10:33.047Z,5.40
2023-03-19T02:11:36.211Z,5.70
2023-03-19T02:12:39.694Z,5.25
2023-03-19T02:13:41.734Z,5.40
2023-03-19T02:14:44.743Z,4.75
2023-03-19T02:15:47.536Z,5.55
2023-03-19T02:16:51.265Z,5.30
2023-03-19T02:17:53.222Z,4.20
2023-03-19T02:18:57.406Z,4.65
2023-03-19T02:20:05.195Z,4.70
2023-03-19T02:21:09.987Z,4.80
2023-03-19T02:22:13.915Z,4.53
2023-03-19T02:23:26.121Z,5.45
2023-03-19T02:24:33.821Z,5.00
2023-03-19T02:25:44.663Z,5.80
2023-03-19T02:26:48.436Z,5.53
2023-03-19T02:27:52.114Z,4.88
2023-03-19T02:28:54.105Z,5.50
2023-03-19T02:29:57.089Z,6.00
2023-03-19T02:30:59.400Z,6.03
2023-03-19T02:32:03.650Z,4.68
2023-03-19T02:33:06.194Z,5.00
2023-03-19T02:34:34.364Z,6.18
2023-03-19T02:35:38.502Z,5.10
2023-03-19T02:36:45.740Z,4.32
2023-03-19T02:37:47.772Z,4.93
2023-03-19T02:38:52.091Z,5.07
2023-03-19T02:39:58.321Z,5.35
2023-03-19T02:41:04.449Z,4.90
2023-03-19T02:42:08.356Z,5.82
2023-03-19T02:43:11.242Z,4.53
2023-03-19T02:44:14.246Z,5.18
2023-03-19T02:45:17.031Z,5.53
2023-03-19T02:46:19.941Z,5.38
2023-03-19T02:47:22.181Z,4.97
2023-03-19T02:48:26.562Z,5.15
2023-03-19T02:49:28.574Z,5.15
2023-03-19T02:50:31.976Z,5.60
2023-03-19T02:51:37.461Z,4.88
2023-03-19T02:52:40.581Z,5.00
2023-03-19T02:53:42.756Z,4.68
2023-03-19T02:54:46.652Z,5.70
2023-03-19T02:55:48.654Z,5.80
2023-03-19T02:56:52.816Z,5.90
2023-03-19T02:57:55.497Z,5.43
2023-03-19T02:58:58.549Z,5.53
2023-03-19T03:00:00.651Z,5.32
2023-03-19T03:01:03.661Z,5.82
2023-03-19T03:02:17.948Z,5.60
2023-03-19T03:03:20.959Z,5.13
2023-03-19T03:04:23.006Z,5.10
2023-03-19T03:05:26.328Z,5.15
2023-03-19T03:06:28.294Z,5.32
2023-03-19T03:07:32.658Z,5.13
2023-03-19T03:08:34.915Z,4.72
2023-03-19T03:09:37.867Z,6.13
2023-03-19T03:10:40.172Z,6.53
2023-03-19T03:11:43.157Z,4.95
2023-03-19T03:12:46.304Z,4.97
2023-03-19T03:13:49.253Z,5.25
2023-03-19T03:14:51.302Z,5.25
2023-03-19T03:15:54.552Z,4.60
2023-03-19T03:16:57.406Z,5.55
2023-03-19T03:18:00.859Z,5.43
2023-03-19T03:19:03.012Z,4.95
2023-03-19T03:20:07.564Z,4.95
2023-03-19T03:21:10.152Z,5.03
2023-03-19T03:22:23.822Z,4.75
2023-03-19T03:23:27.696Z,4.95
2023-03-19T03:24:31.122Z,5.55
2023-03-19T03:25:33.045Z,5.55
2023-03-19T03:26:38.735Z,5.22
2023-03-19T03:27:41.309Z,5.63
2023-03-19T03:28:44.376Z,4.85
2023-03-19T03:29:46.932Z,5.05
2023-03-19T03:30:50.117Z,4.50
2023-03-19T03:31:52.384Z,5.18
2023-03-19T03:32:55.520Z,4.90
2023-03-19T03:33:57.548Z,5.03
2023-03-19T03:35:00.898Z,6.00
2023-03-19T03:36:02.910Z,4.95
2023-03-19T03:37:06.084Z,4.75
2023-03-19T03:38:08.110Z,5.07
2023-03-19T03:39:12.417Z,4.65
2023-03-19T03:40:16.038Z,4.68
2023-03-19T03:41:18.937Z,4.68
2023-03-19T03:42:22.437Z,4.72
2023-03-19T03:43:25.884Z,4.43
2023-03-19T03:44:27.798Z,4.60
2023-03-19T03:45:30.855Z,6.07
2023-03-19T03:46:32.831Z,5.85
2023-03-19T03:47:35.868Z,4.95
2023-03-19T03:48:37.802Z,4.93
2023-03-19T03:49:40.743Z,4.90
2023-03-19T03:50:43.218Z,5.25
2023-03-19T03:51:46.137Z,4.90
2023-03-19T03:52:48.124Z,4.50
2023-03-19T03:53:51.115Z,5.05
2023-03-19T03:54:54.447Z,4.30
2023-03-19T03:55:57.348Z,4.55
2023-03-19T03:57:00.766Z,4.95
2023-03-19T03:58:05.818Z,5.80
2023-03-19T03:59:08.071Z,4.85
2023-03-19T04:00:12.575Z,5.03
2023-03-19T04:01:16.124Z,4.97
2023-03-19T04:02:19.079Z,5.70
2023-03-19T04:03:21.156Z,5.20
2023-03-19T04:04:24.167Z,5.32
2023-03-19T04:05:26.383Z,4.93
2023-03-19T04:06:29.925Z,5.28
2023-03-19T04:07:32.104Z,5.00
2023-03-19T04:08:35.078Z,4.97
2023-03-19T04:09:37.113Z,6.15
2023-03-19T04:10:43.704Z,5.55
2023-03-19T04:11:45.914Z,6.47
2023-03-19T04:12:49.721Z,5.75
2023-03-19T04:13:52.160Z,5.40
2023-03-19T04:14:55.065Z,5.18
2023-03-19T04:15:57.323Z,4.72
2023-03-19T04:17:00.441Z,5.80
2023-03-19T04:18:02.417Z,4.80
2023-03-19T04:19:05.370Z,5.30
2023-03-19T04:20:09.120Z,5.30
2023-03-19T04:21:12.085Z,5.40
2023-03-19T04:22:14.140Z,6.35
2023-03-19T04:23:17.130Z,5.63
2023-03-19T04:24:19.214Z,5.13
2023-03-19T04:25:22.124Z,5.50
2023-03-19T04:26:25.825Z,5.80
2023-03-19T04:27:28.845Z,5.20
2023-03-19T04:28:31.222Z,4.93
2023-03-19T04:29:34.253Z,4.85
2023-03-19T04:30:36.436Z,5.15
2023-03-19T04:31:39.777Z,4.50
2023-03-19T04:32:41.715Z,5.43
2023-03-19T04:33:44.666Z,5.60
2023-03-19T04:34:46.662Z,5.38
2023-03-19T04:35:49.789Z,5.20
2023-03-19T04:36:53.007Z,5.05
2023-03-19T04:37:54.977Z,6.15
2023-03-19T04:38:57.930Z,5.35
2023-03-19T04:40:00.155Z,5.47
2023-03-19T04:41:04.149Z,5.35
2023-03-19T04:42:07.677Z,5.00
2023-03-19T04:43:10.665Z,5.40
2023-03-19T04:44:13.524Z,5.40
2023-03-19T04:45:16.596Z,5.28
2023-03-19T04:46:18.640Z,5.80
2023-03-19T04:47:21.934Z,5.70
2023-03-19T04:48:23.942Z,4.85
2023-03-19T04:49:28.233Z,5.75
2023-03-19T04:50:30.636Z,5.25
2023-03-19T04:51:33.670Z,6.05
2023-03-19T04:52:37.223Z,6.55
2023-03-19T04:53:40.217Z,5.53
2023-03-19T04:54:42.256Z,5.63
2023-03-19T04:55:45.472Z,6.15
2023-03-19T04:56:47.506Z,5.22
2023-03-19T04:57:51.989Z,5.57
2023-03-19T04:58:54.282Z,5.32
2023-03-19T04:59:57.357Z,5.22
2023-03-19T05:00:59.278Z,5.68
2023-03-19T05:02:02.200Z,5.78
2023-03-19T05:03:04.297Z,5.68
2023-03-19T05:04:07.341Z,6.07
2023-03-19T05:05:09.816Z,5.20
2023-03-19T05:06:12.760Z,4.50
2023-03-19T05:07:14.751Z,5.70
2023-03-19T05:08:18.051Z,6.10
2023-03-19T05:09:20.025Z,5.68
2023-03-19T05:10:23.163Z,5.80
2023-03-19T05:11:25.201Z,5.15
2023-03-19T05:12:28.098Z,5.53
2023-03-19T05:13:32.497Z,5.07
2023-03-19T05:14:34.458Z,5.35
2023-03-19T05:15:37.483Z,4.80
2023-03-19T05:16:39.724Z,5.50
2023-03-19T05:17:42.801Z,4.50
2023-03-19T05:18:44.813Z,5.45
2023-03-19T05:19:48.491Z,5.78
2023-03-19T05:20:50.440Z,5.00
2023-03-19T05:21:53.436Z,5.22
2023-03-19T05:22:55.449Z,5.68
2023-03-19T05:23:58.358Z,5.53
2023-03-19T05:25:00.328Z,6.15
2023-03-19T05:26:03.301Z,5.53
2023-03-19T05:27:05.381Z,5.80
2023-03-19T05:28:08.743Z,4.75
2023-03-19T05:29:12.172Z,5.65
2023-03-19T05:30:15.964Z,4.68
2023-03-19T05:31:19.084Z,5.38
2023-03-19T05:32:21.247Z,4.72
2023-03-19T05:33:24.461Z,4.80
2023-03-19T05:34:27.119Z,5.07
2023-03-19T05:35:31.111Z,5.13
2023-03-19T05:36:35.039Z,5.95
2023-03-19T05:37:38.265Z,5.25
2023-03-19T05:38:40.642Z,5.80
2023-03-19T05:39:43.634Z,5.10
2023-03-19T05:40:45.767Z,4.97
2023-03-19T05:41:48.808Z,5.07
2023-03-19T05:42:51.363Z,5.88
2023-03-19T05:43:54.345Z,4.75
2023-03-19T05:44:58.016Z,5.45
2023-03-19T05:46:00.956Z,4.22
2023-03-19T05:47:02.888Z,5.28
2023-03-19T05:48:06.409Z,5.32
2023-03-19T05:49:08.422Z,5.50
2023-03-19T05:50:12.699Z,5.63
2023-03-19T05:51:14.708Z,5.30
2023-03-19T05:52:17.734Z,4.72
2023-03-19T05:53:20.829Z,4.68
2023-03-19T05:54:22.825Z,4.93
2023-03-19T05:55:27.098Z,4.10
2023-03-19T05:56:29.551Z,5.70
2023-03-19T05:57:32.553Z,5.30
2023-03-19T05:58:34.540Z,6.13
2023-03-19T05:59:37.567Z,6.05
2023-03-19T06:00:41.567Z,5.30
2023-03-19T06:01:44.527Z,5.40
2023-03-19T06:02:46.988Z,5.63
2023-03-19T06:03:50.078Z,4.97
2023-03-19T06:04:52.150Z,4.75
2023-03-19T06:05:55.149Z,5.30
2023-03-19T06:06:57.120Z,5.20
2023-03-19T06:08:00.125Z,5.85
2023-03-19T06:09:02.091Z,5.68
2023-03-19T06:10:06.514Z,5.18
2023-03-19T06:11:08.815Z,5.70
2023-03-19T06:12:12.160Z,5.18
2023-03-19T06:13:14.183Z,5.78
2023-03-19T06:14:17.191Z,5.65
2023-03-19T06:15:19.146Z,5.80
2023-03-19T06:16:23.689Z,5.00
2023-03-19T06:17:25.779Z,5.45
2023-03-19T06:18:29.136Z,4.93
2023-03-19T06:19:31.043Z,5.15
2023-03-19T06:20:34.183Z,4.85
2023-03-19T06:21:37.312Z,5.30
2023-03-19T06:22:39.301Z,5.45
2023-03-19T06:23:42.229Z,6.00
2023-03-19T06:24:44.180Z,5.78
2023-03-19T06:25:47.219Z,6.60
2023-03-19T06:26:49.158Z,5.82
2023-03-19T06:27:52.103Z,5.47
2023-03-19T06:28:54.764Z,6.95
2023-03-19T06:29:57.716Z,5.90
2023-03-19T06:30:59.669Z,4.88
2023-03-19T06:32:04.605Z,5.35
2023-03-19T06:33:06.624Z,5.80
2023-03-19T06:34:10.184Z,5.40
2023-03-19T06:35:12.775Z,5.43
2023-03-19T06:36:15.674Z,4.80
2023-03-19T06:37:18.950Z,4.97
2023-03-19T06:38:22.466Z,4.72
2023-03-19T06:39:25.928Z,4.93
2023-03-19T06:40:28.164Z,5.80
2023-03-19T06:41:31.252Z,4.97
2023-03-19T06:42:33.339Z,5.18
2023-03-19T06:43:37.269Z,5.20
2023-03-19T06:44:39.312Z,4.90
2023-03-19T06:45:42.314Z,10.38
2023-03-19T06:46:44.314Z,13.35
2023-03-19T06:47:48.666Z,14.40
2023-03-19T06:48:50.623Z,14.80
2023-03-19T06:49:53.523Z,13.18
2023-03-19T06:50:55.504Z,11.50
2023-03-19T06:51:58.394Z,8.98
2023-03-19T06:53:00.541Z,9.98
2023-03-19T06:54:03.487Z,10.65
2023-03-19T06:55:06.962Z,9.52
2023-03-19T06:56:10.264Z,9.48
2023-03-19T06:57:12.277Z,10.15
2023-03-19T06:58:15.198Z,8.07
2023-03-19T06:59:17.504Z,6.88
2023-03-19T07:00:21.325Z,6.47
2023-03-19T07:01:24.033Z,7.03
2023-03-19T07:02:27.743Z,7.45
2023-03-19T07:03:31.441Z,6.82
2023-03-19T07:04:34.375Z,5.88
2023-03-19T07:05:36.371Z,5.68
2023-03-19T07:06:39.315Z,5.10
2023-03-19T07:07:41.393Z,5.75
2023-03-19T07:08:46.300Z,6.65
2023-03-19T07:09:48.225Z,5.93
2023-03-19T07:10:51.184Z,5.35
2023-03-19T07:11:53.157Z,5.75
2023-03-19T07:12:56.212Z,5.55
2023-03-19T07:13:58.200Z,5.20
2023-03-19T07:15:01.608Z,5.85
2023-03-19T07:16:05.251Z,6.20
2023-03-19T07:17:09.842Z,6.10
2023-03-19T07:18:13.324Z,6.10
2023-03-19T07:19:16.632Z,6.30
2023-03-19T07:20:19.794Z,6.43
2023-03-19T07:21:22.133Z,6.18
2023-03-19T07:22:25.149Z,5.85
2023-03-19T07:23:27.161Z,5.82
2023-03-19T07:24:30.082Z,7.05
2023-03-19T07:25:33.019Z,6.70
2023-03-19T07:26:35.114Z,6.03
2023-03-19T07:27:38.097Z,6.20
2023-03-19T07:28:40.445Z,7.03
2023-03-19T07:29:43.374Z,7.25
2023-03-19T07:30:45.375Z,7.30
2023-03-19T07:31:48.303Z,6.90
2023-03-19T07:32:50.556Z,7.13
2023-03-19T07:33:53.599Z,8.10
2023-03-19T07:34:56.996Z,7.78
2023-03-19T07:35:59.913Z,7.40
2023-03-19T07:37:02.899Z,7.82
2023-03-19T07:38:04.922Z,7.00
2023-03-19T07:39:07.863Z,8.18
2023-03-19T07:40:10.984Z,8.18
2023-03-19T07:41:13.931Z,8.07
2023-03-19T07:42:16.189Z,8.50
2023-03-19T07:43:19.456Z,8.55
2023-03-19T07:44:22.401Z,8.13
2023-03-19T07:45:24.315Z,8.13
2023-03-19T07:46:28.349Z,8.50
2023-03-19T07:47:30.799Z,6.00
2023-03-19T07:48:35.110Z,6.30
2023-03-19T07:49:37.182Z,5.30
2023-03-19T07:50:41.552Z,7.00
2023-03-19T07:51:43.487Z,5.55
2023-03-19T07:52:47.062Z,5.60
2023-03-19T07:53:50.429Z,6.15
2023-03-19T07:54:53.483Z,5.50
2023-03-19T07:55:56.511Z,6.55
2023-03-19T07:56:58.482Z,6.90
2023-03-19T07:58:01.384Z,7.30
2023-03-19T07:59:04.433Z,7.60
2023-03-19T08:00:09.004Z,6.53
2023-03-19T08:01:11.158Z,5.35
2023-03-19T08:02:14.654Z,7.03
2023-03-19T08:03:16.816Z,6.10
2023-03-19T08:04:20.060Z,5.53
2023-03-19T08:05:22.340Z,6.47
2023-03-19T08:06:26.733Z,7.03
2023-03-19T08:07:28.749Z,6.68
2023-03-19T08:08:31.737Z,6.60
2023-03-19T08:09:34.128Z,7.28
2023-03-19T08:10:38.809Z,6.72
2023-03-19T08:11:41.072Z,6.93
2023-03-19T08:12:44.036Z,7.22
2023-03-19T08:13:47.164Z,6.60
2023-03-19T08:14:49.090Z,6.95
2023-03-19T08:15:53.370Z,6.82
2023-03-19T08:16:55.604Z,7.28
2023-03-19T08:17:59.683Z,6.75
2023-03-19T08:19:02.671Z,7.90
2023-03-19T08:20:08.267Z,7.80
2023-03-19T08:21:12.452Z,6.13
2023-03-19T08:22:16.041Z,7.32
2023-03-19T08:23:19.336Z,6.60
2023-03-19T08:24:22.546Z,6.60
2023-03-19T08:25:27.358Z,6.20
2023-03-19T08:26:30.459Z,6.60
2023-03-19T08:27:34.405Z,5.88
2023-03-19T08:28:38.108Z,6.50
2023-03-19T08:29:40.635Z,7.10
2023-03-19T08:30:43.617Z,7.88
2023-03-19T08:31:46.231Z,7.03
2023-03-19T08:32:49.480Z,6.53
2023-03-19T08:33:51.562Z,7.35
2023-03-19T08:34:54.472Z,7.78
2023-03-19T08:36:05.312Z,6.68
2023-03-19T08:37:08.351Z,7.00
2023-03-19T08:38:12.024Z,6.53
2023-03-19T08:39:15.260Z,7.55
2023-03-19T08:40:18.611Z,7.05
2023-03-19T08:41:20.838Z,7.35
2023-03-19T08:42:23.943Z,6.88
2023-03-19T08:43:26.959Z,7.00
2023-03-19T08:44:29.464Z,8.10
2023-03-19T08:45:32.583Z,7.78
2023-03-19T08:46:34.763Z,8.02
2023-03-19T08:47:37.987Z,7.47
2023-03-19T08:48:41.567Z,7.47
2023-03-19T08:49:43.670Z,7.38
2023-03-19T08:50:46.622Z,7.30
2023-03-19T08:51:51.951Z,7.25
2023-03-19T08:52:55.922Z,7.25
2023-03-19T08:54:00.399Z,7.50
2023-03-19T08:55:03.517Z,7.82
2023-03-19T08:56:07.769Z,7.20
2023-03-19T08:57:11.200Z,7.28
2023-03-19T08:58:13.154Z,7.05
2023-03-19T08:59:16.051Z,7.85
2023-03-19T09:00:19.710Z,8.43
2023-03-19T09:01:21.674Z,6.85
2023-03-19T09:02:24.699Z,7.03
2023-03-19T09:03:27.326Z,8.30
2023-03-19T09:04:30.554Z,6.97
2023-03-19T09:05:32.830Z,7.50
2023-03-19T09:06:36.209Z,7.93
2023-03-19T09:07:39.134Z,7.90
2023-03-19T09:08:42.958Z,7.45
2023-03-19T09:09:47.318Z,6.97
2023-03-19T09:10:51.379Z,7.07
2023-03-19T09:11:54.613Z,7.80
2023-03-19T09:12:57.567Z,7.32
2023-03-19T09:13:59.495Z,8.65
2023-03-19T09:15:03.458Z,7.60
2023-03-19T09:16:06.914Z,6.25
2023-03-19T09:17:12.877Z,6.20
2023-03-19T09:18:14.873Z,6.75
2023-03-19T09:19:17.895Z,6.55
2023-03-19T09:20:21.038Z,6.38
2023-03-19T09:21:22.935Z,6.80
2023-03-19T09:22:26.077Z,6.70
2023-03-19T09:23:28.335Z,6.60
2023-03-19T09:24:31.259Z,6.57
2023-03-19T09:25:34.851Z,5.63
2023-03-19T09:26:37.981Z,6.20
2023-03-19T09:27:41.152Z,6.40
2023-03-19T09:28:43.084Z,6.70
2023-03-19T09:29:46.063Z,5.88
2023-03-19T09:30:48.942Z,6.65
2023-03-19T09:31:51.933Z,5.80
2023-03-19T09:32:53.936Z,5.75
2023-03-19T09:33:56.979Z,5.40
2023-03-19T09:34:58.992Z,6.25
2023-03-19T09:36:04.633Z,5.18
2023-03-19T09:37:06.693Z,5.80
2023-03-19T09:38:09.849Z,4.78
2023-03-19T09:39:11.760Z,4.63
2023-03-19T09:40:23.648Z,5.22
2023-03-19T09:41:37.718Z,5.45
2023-03-19T09:42:56.964Z,4.53
2023-03-19T09:44:01.859Z,4.05
2023-03-19T09:45:05.356Z,4.50
2023-03-19T09:46:14.909Z,3.50
2023-03-19T09:47:27.262Z,4.00
2023-03-19T09:48:37.254Z,3.42
2023-03-19T09:49:44.090Z,2.70
2023-03-19T09:50:48.885Z,2.80
2023-03-19T09:51:54.796Z,2.47
2023-03-19T09:53:03.017Z,2.70
2023-03-19T09:54:09.304Z,2.22
2023-03-19T09:55:20.682Z,2.00
2023-03-19T09:56:23.104Z,2.30
2023-03-19T09:57:29.876Z,2.60
2023-03-19T09:58:36.282Z,2.58
2023-03-19T09:59:39.136Z,2.05
2023-03-19T10:00:44.164Z,2.00
2023-03-19T10:01:52.950Z,2.10
2023-03-19T10:03:03.869Z,2.00
2023-03-19T10:04:38.121Z,2.47
2023-03-19T10:05:50.420Z,2.20
2023-03-19T10:06:59.620Z,2.40
2023-03-19T10:08:21.158Z,2.20
2023-03-19T10:09:40.331Z,2.05
2023-03-19T10:10:51.549Z,1.80
2023-03-19T10:12:10.375Z,2.67
2023-03-19T10:13:23.927Z,2.08
2023-03-19T10:14:56.766Z,2.40
2023-03-19T10:16:01.927Z,1.67
2023-03-19T10:17:11.909Z,1.70
2023-03-19T10:18:20.449Z,1.67
2023-03-19T10:19:40.486Z,1.60
2023-03-19T10:20:49.787Z,1.75
2023-03-19T10:21:59.527Z,1.90
2023-03-19T10:23:11.024Z,2.15
2023-03-19T10:24:16.858Z,3.55
2023-03-19T10:25:22.077Z,1.73
2023-03-19T10:26:31.193Z,1.80
2023-03-19T10:27:33.409Z,2.00
2023-03-19T10:28:38.224Z,2.50
2023-03-19T10:29:41.116Z,3.50
2023-03-19T10:30:49.636Z,3.03
2023-03-19T10:31:58.209Z,2.25
2023-03-19T10:33:12.129Z,2.35
2023-03-19T10:34:41.028Z,1.77
2023-03-19T10:35:45.373Z,2.13
2023-03-19T10:36:48.381Z,1.83
2023-03-19T10:37:51.957Z,1.42
2023-03-19T10:38:54.973Z,1.70
2023-03-19T10:39:59.981Z,2.15
2023-03-19T10:41:17.452Z,2.10
2023-03-19T10:42:50.204Z,1.95
2023-03-19T10:43:56.828Z,1.83
2023-03-19T10:45:04.959Z,2.10
2023-03-19T10:46:12.913Z,1.25
2023-03-19T10:47:17.629Z,1.95
2023-03-19T10:48:19.828Z,1.90
2023-03-19T10:49:22.788Z,1.85
2023-03-19T10:50:30.076Z,1.50
2023-03-19T10:51:33.453Z,1.60
2023-03-19T10:52:38.628Z,2.03
2023-03-19T10:53:41.334Z,1.40
2023-03-19T10:54:45.971Z,1.80
2023-03-19T10:55:53.526Z,1.88
2023-03-19T10:56:57.593Z,2.03
2023-03-19T10:58:04.852Z,1.38
2023-03-19T10:59:23.704Z,2.88
2023-03-19T11:00:29.359Z,3.42
2023-03-19T11:01:34.889Z,2.40
2023-03-19T11:02:37.641Z,3.00
2023-03-19T11:03:50.570Z,3.08
2023-03-19T11:05:08.683Z,1.75
2023-03-19T11:06:24.834Z,1.83
2023-03-19T11:07:29.003Z,1.40
2023-03-19T11:08:36.153Z,1.50
2023-03-19T11:09:42.004Z,1.63
2023-03-19T11:10:48.515Z,1.23
2023-03-19T11:11:54.130Z,1.55
2023-03-19T11:12:57.947Z,1.40
2023-03-19T11:14:08.753Z,1.55
2023-03-19T11:15:21.132Z,1.83
2023-03-19T11:16:24.318Z,1.58
2023-03-19T11:17:28.502Z,1.40
2023-03-19T11:18:37.102Z,1.60
2023-03-19T11:19:42.175Z,1.15
2023-03-19T11:20:50.020Z,1.70
2023-03-19T11:22:09.699Z,1.90
2023-03-19T11:23:17.006Z,1.33
2023-03-19T11:24:21.256Z,1.73
2023-03-19T11:25:28.374Z,1.55
2023-03-19T11:26:32.451Z,1.30
2023-03-19T11:27:36.914Z,1.35
2023-03-19T11:28:45.177Z,1.35
2023-03-19T11:29:49.432Z,1.50
2023-03-19T11:31:00.012Z,1.70
2023-03-19T11:32:21.233Z,1.30
2023-03-19T11:33:47.650Z,1.45
2023-03-19T11:34:56.956Z,1.20
2023-03-19T11:36:06.527Z,1.45
2023-03-19T11:37:18.030Z,1.40
2023-03-19T11:38:26.371Z,1.83
2023-03-19T11:39:32.302Z,1.30
2023-03-19T11:40:45.510Z,1.40
2023-03-19T11:42:00.278Z,1.20
2023-03-19T11:43:38.673Z,1.25
2023-03-19T11:44:52.767Z,1.73
2023-03-19T11:46:08.016Z,1.35
2023-03-19T11:47:27.477Z,1.15
2023-03-19T11:48:40.589Z,1.50
2023-03-19T11:50:08.285Z,1.80
2023-03-19T11:51:19.192Z,1.67
2023-03-19T11:52:30.391Z,1.90
2023-03-19T11:53:38.527Z,1.20
2023-03-19T11:54:51.163Z,1.33
2023-03-19T11:56:03.522Z,1.58
2023-03-19T11:57:11.514Z,1.58
2023-03-19T11:58:41.387Z,1.40
2023-03-19T12:00:08.128Z,1.30
2023-03-19T12:01:21.343Z,1.15
2023-03-19T12:02:40.831Z,1.60
2023-03-19T12:04:16.947Z,1.67
2023-03-19T12:05:32.998Z,2.15
2023-03-19T12:06:49.251Z,1.42
2023-03-19T12:08:07.409Z,1.58
2023-03-19T12:09:19.086Z,1.45
2023-03-19T12:10:39.186Z,1.75
2023-03-19T12:11:49.612Z,1.45
2023-03-19T12:13:02.930Z,1.48
2023-03-19T12:14:19.745Z,1.20
2023-03-19T12:15:27.023Z,1.38
2023-03-19T12:16:45.730Z,1.40
2023-03-19T12:18:01.781Z,1.45
2023-03-19T12:19:23.948Z,1.35
2023-03-19T12:20:35.863Z,1.30
2023-03-19T12:21:48.700Z,1.60
2023-03-19T12:23:06.554Z,1.67
2023-03-19T12:24:21.608Z,1.75
2023-03-19T12:25:39.331Z,1.40
2023-03-19T12:26:56.544Z,1.50
2023-03-19T12:28:06.490Z,1.40
2023-03-19T12:29:21.618Z,1.60
2023-03-19T12:30:33.712Z,1.50
2023-03-19T12:31:49.168Z,1.55
2023-03-19T12:33:10.198Z,1.70
2023-03-19T12:34:29.690Z,1.73
2023-03-19T12:35:35.413Z,1.67
2023-03-19T12:36:42.870Z,1.67
2023-03-19T12:37:54.251Z,1.58
2023-03-19T12:39:02.378Z,1.40
2023-03-19T12:40:20.658Z,1.50
2023-03-19T12:41:24.311Z,1.63
2023-03-19T12:42:33.295Z,1.70
2023-03-19T12:43:39.087Z,1.60
2023-03-19T12:44:45.198Z,1.95
2023-03-19T12:45:51.146Z,1.38
2023-03-19T12:47:00.171Z,1.35
2023-03-19T12:48:08.498Z,1.42
2023-03-19T12:49:17.970Z,1.60
2023-03-19T12:50:20.442Z,1.40
2023-03-19T12:51:28.825Z,1.42
2023-03-19T12:52:35.776Z,1.63
2023-03-19T12:53:47.567Z,1.60
2023-03-19T12:54:57.890Z,1.17
2023-03-19T12:56:08.035Z,1.30
2023-03-19T12:57:18.655Z,1.20
2023-03-19T12:58:31.318Z,1.17
2023-03-19T12:59:40.768Z,1.40
2023-03-19T13:00:52.766Z,1.30
2023-03-19T13:02:01.895Z,1.80
2023-03-19T13:03:12.024Z,1.55
2023-03-19T13:04:19.116Z,1.50
2023-03-19T13:05:29.706Z,1.17
2023-03-19T13:06:37.008Z,1.60
2023-03-19T13:07:52.064Z,1.42
2023-03-19T13:09:03.000Z,1.08
2023-03-19T13:10:09.671Z,1.10
2023-03-19T13:11:16.797Z,1.58
2023-03-19T13:12:22.898Z,1.10
2023-03-19T13:13:36.464Z,1.20
2023-03-19T13:14:50.095Z,1.42
2023-03-19T13:15:57.102Z,1.00
2023-03-19T13:17:08.552Z,1.40
2023-03-19T13:18:22.752Z,1.40
2023-03-19T13:19:32.162Z,1.55
2023-03-19T13:20:51.866Z,1.50
2023-03-19T13:21:57.924Z,1.33
2023-03-19T13:23:04.950Z,1.20
2023-03-19T13:24:18.570Z,2.00
2023-03-19T13:25:26.549Z,1.33
2023-03-19T13:26:28.839Z,1.60
2023-03-19T13:27:33.901Z,1.40
2023-03-19T13:28:38.720Z,1.25
2023-03-19T13:30:04.028Z,1.60
2023-03-19T13:31:09.559Z,1.55
2023-03-19T13:32:26.502Z,1.80
2023-03-19T13:33:28.941Z,1.20
2023-03-19T13:34:35.320Z,2.30
2023-03-19T13:35:43.708Z,2.00
2023-03-19T13:36:49.180Z,1.52
2023-03-19T13:37:58.452Z,1.80
2023-03-19T13:39:02.692Z,1.42
2023-03-19T13:40:05.924Z,1.70
2023-03-19T13:41:51.984Z,1.80
2023-03-19T13:42:57.218Z,1.65
2023-03-19T13:44:00.877Z,1.65
2023-03-19T13:45:04.920Z,2.28
2023-03-19T13:46:39.278Z,2.33
2023-03-19T13:47:44.083Z,2.00
2023-03-19T13:48:52.016Z,1.60
2023-03-19T13:50:26.362Z,1.35
2023-03-19T13:51:31.201Z,1.52
2023-03-19T13:52:51.897Z,1.70
2023-03-19T13:53:55.138Z,1.55
2023-03-19T13:55:29.900Z,1.33
2023-03-19T13:56:54.398Z,1.63
2023-03-19T13:58:13.000Z,1.40
2023-03-19T13:59:27.923Z,1.27
2023-03-19T14:01:00.813Z,0.98
2023-03-19T14:02:05.392Z,1.30
2023-03-19T14:03:19.827Z,1.13
2023-03-19T14:04:27.853Z,1.48
2023-03-19T14:05:34.035Z,1.58
2023-03-19T14:06:41.616Z,1.25
2023-03-19T14:07:47.677Z,1.00
2023-03-19T14:08:51.808Z,1.17
2023-03-19T14:10:05.895Z,1.10
2023-03-19T14:11:08.172Z,0.88
2023-03-19T14:12:21.665Z,1.15
2023-03-19T14:13:39.608Z,1.00
2023-03-19T14:14:43.889Z,1.00
2023-03-19T14:15:51.585Z,1.52
2023-03-19T14:16:53.995Z,1.02
2023-03-19T14:18:00.527Z,1.13
2023-03-19T14:19:05.247Z,1.08
2023-03-19T14:20:31.469Z,1.40
2023-03-19T14:21:46.732Z,1.10
2023-03-19T14:23:02.601Z,1.35
2023-03-19T14:26:05.174Z,1.08
2023-03-19T14:27:16.075Z,1.00
2023-03-19T14:28:20.887Z,1.20
2023-03-19T14:29:26.604Z,1.08
2023-03-19T14:30:33.827Z,0.80
2023-03-19T14:31:44.758Z,1.10
2023-03-19T14:32:49.982Z,1.23
2023-03-19T14:33:59.218Z,1.15
2023-03-19T14:35:05.784Z,1.35
2023-03-19T14:36:12.479Z,1.15